Time;durP1;ratioP1;P1;durP2;ratioP2;P2;SDS_P1;SDS_P2;PMS_P1;PMS_P2;Temp;Humidity;BMP_temperature;BMP_pressure;BME280_temperature;BME280_humidity;BME280_pressure;Samples;Min_cycle;Max_cycle;Signal;HPM_P1;HPM_P2
2022/10/10 00:02:05;;;;;;;13.87;5.70;;;6.60;99.90;;;;;;2603609;54;19934;31
2022/10/10 00:04:40;;;;;;;14.50;5.30;;;6.60;99.90;;;;;;2603359;54;20798;31
2022/10/10 00:07:15;;;;;;;10.83;5.97;;;6.50;99.90;;;;;;2603432;54;20046;31
2022/10/10 00:09:51;;;;;;;15.55;7.05;;;6.50;99.90;;;;;;2621970;46;20030;31
2022/10/10 00:12:25;;;;;;;15.95;6.93;;;6.50;99.90;;;;;;2603426;54;20957;31
2022/10/10 00:14:59;;;;;;;11.40;6.03;;;6.40;99.90;;;;;;2603456;54;20871;31
2022/10/10 00:17:37;;;;;;;16.05;6.65;;;6.60;99.90;;;;;;2621447;46;20101;31
2022/10/10 00:20:12;;;;;;;14.13;6.40;;;6.50;99.90;;;;;;2603299;54;20792;31
2022/10/10 00:22:47;;;;;;;17.10;7.18;;;6.40;99.90;;;;;;2603535;54;20053;31
2022/10/10 00:25:23;;;;;;;12.65;6.40;;;6.40;99.90;;;;;;2603175;54;20076;31
2022/10/10 00:28:01;;;;;;;9.70;4.72;;;6.30;99.90;;;;;;2603263;54;20951;31
2022/10/10 00:30:36;;;;;;;12.00;5.93;;;6.40;99.90;;;;;;2603411;54;20031;31
2022/10/10 00:33:13;;;;;;;13.45;6.00;;;6.30;99.90;;;;;;2603094;54;20915;31
2022/10/10 00:35:47;;;;;;;15.55;5.07;;;6.30;99.90;;;;;;2603533;54;20031;31
2022/10/10 00:38:22;;;;;;;12.07;5.80;;;6.40;99.90;;;;;;2603512;54;20813;31
2022/10/10 00:40:57;;;;;;;12.90;5.93;;;6.30;99.90;;;;;;2621965;46;20026;31
2022/10/10 00:43:31;;;;;;;18.67;6.57;;;6.30;99.90;;;;;;2603370;54;20057;31
2022/10/10 00:46:06;;;;;;;11.80;5.90;;;6.20;99.90;;;;;;2603031;54;21051;31
2022/10/10 00:48:44;;;;;;;13.40;5.65;;;6.20;99.90;;;;;;2603054;54;20581;31
2022/10/10 00:51:19;;;;;;;14.40;6.50;;;6.20;99.90;;;;;;2622045;46;20832;31
2022/10/10 00:53:54;;;;;;;13.83;6.50;;;6.20;99.90;;;;;;2603271;54;20897;31
2022/10/10 00:56:31;;;;;;;10.90;6.37;;;6.20;99.90;;;;;;2702007;39;21088;31
2022/10/10 00:59:07;;;;;;;13.10;6.22;;;6.10;99.90;;;;;;2603258;54;20065;31
2022/10/10 01:01:42;;;;;;;11.18;5.47;;;6.30;99.90;;;;;;2621849;46;20912;31
2022/10/10 01:04:36;;;;;;;14.60;6.53;;;6.10;99.90;;;;;;2603385;54;20832;31
2022/10/10 01:07:17;;;;;;;17.55;6.95;;;6.10;99.90;;;;;;2603358;54;20847;31
2022/10/10 01:09:52;;;;;;;17.95;6.85;;;6.10;99.90;;;;;;2603055;54;20109;31
2022/10/10 01:12:29;;;;;;;11.63;6.00;;;6.10;99.90;;;;;;2603132;54;20084;31
2022/10/10 01:15:06;;;;;;;13.32;6.50;;;6.00;99.90;;;;;;2621413;46;20257;31
2022/10/10 01:17:43;;;;;;;11.80;6.10;;;6.00;99.90;;;;;;2602986;54;20029;31
2022/10/10 01:20:44;;;;;;;10.05;6.35;;;6.00;99.90;;;;;;2603113;54;20816;31
2022/10/10 01:23:46;;;;;;;11.90;5.85;;;6.00;99.90;;;;;;2603392;54;20023;31
2022/10/10 01:26:39;;;;;;;12.75;7.25;;;6.00;99.90;;;;;;2603379;54;20026;31
2022/10/10 01:29:19;;;;;;;15.18;6.93;;;5.90;99.90;;;;;;2603246;54;25046;31
2022/10/10 01:31:56;;;;;;;14.07;6.55;;;5.90;99.90;;;;;;2602311;54;20924;31
2022/10/10 01:34:34;;;;;;;16.73;6.25;;;5.90;99.90;;;;;;2603339;54;20048;31
2022/10/10 01:37:12;;;;;;;14.48;8.00;;;6.00;99.90;;;;;;2602938;54;20812;31
2022/10/10 01:39:51;;;;;;;11.88;6.35;;;5.90;99.90;;;;;;2603307;54;20042;31
2022/10/10 01:42:30;;;;;;;12.70;6.68;;;5.90;99.90;;;;;;2603038;54;20894;31
2022/10/10 01:45:10;;;;;;;17.38;7.00;;;5.90;99.90;;;;;;2603053;54;20057;31
2022/10/10 01:47:45;;;;;;;13.10;6.90;;;5.80;99.90;;;;;;2621770;46;20889;31
2022/10/10 01:50:22;;;;;;;12.03;7.27;;;5.90;99.90;;;;;;2616859;47;20845;31
2022/10/10 01:53:03;;;;;;;17.25;7.05;;;5.80;99.90;;;;;;2701705;39;22351;31
2022/10/10 01:55:57;;;;;;;12.57;7.13;;;5.80;99.90;;;;;;2603086;54;20025;31
2022/10/10 01:59:09;;;;;;;15.07;7.20;;;5.90;99.90;;;;;;2603185;54;20031;31
2022/10/10 02:01:50;;;;;;;14.05;6.65;;;5.70;99.90;;;;;;2603523;54;20034;31
2022/10/10 02:04:31;;;;;;;15.73;7.50;;;5.70;99.90;;;;;;2603990;54;20030;31
2022/10/10 02:07:07;;;;;;;22.52;7.97;;;5.70;99.90;;;;;;2622065;46;20026;31
2022/10/10 02:09:43;;;;;;;13.60;8.30;;;5.70;99.90;;;;;;2603666;54;20026;31
2022/10/10 02:12:17;;;;;;;16.88;8.50;;;5.70;99.90;;;;;;2622503;46;20058;31
2022/10/10 02:14:54;;;;;;;13.50;7.97;;;5.70;99.90;;;;;;2603740;54;20812;31
2022/10/10 02:17:33;;;;;;;16.42;8.20;;;6.00;99.90;;;;;;2603890;54;20889;31
2022/10/10 02:20:08;;;;;;;16.13;8.32;;;5.80;99.90;;;;;;2603728;54;20057;31
2022/10/10 02:22:43;;;;;;;24.33;9.97;;;5.60;99.90;;;;;;2622436;46;20107;31
2022/10/10 02:25:17;;;;;;;19.08;9.75;;;5.60;99.90;;;;;;2603922;54;20030;31
2022/10/10 02:27:56;;;;;;;18.77;9.38;;;5.60;99.90;;;;;;2603873;54;20026;31
2022/10/10 02:30:31;;;;;;;15.10;8.48;;;5.60;99.90;;;;;;2603608;54;20904;31
2022/10/10 02:33:12;;;;;;;11.70;8.50;;;5.50;99.90;;;;;;2603428;54;20592;31
2022/10/10 02:35:48;;;;;;;14.90;8.45;;;5.60;99.90;;;;;;2603814;54;20033;31
2022/10/10 02:38:23;;;;;;;14.83;8.47;;;5.50;99.90;;;;;;2603817;54;20053;31
2022/10/10 02:40:57;;;;;;;17.85;9.68;;;5.90;99.90;;;;;;2603844;54;20822;31
2022/10/10 02:43:32;;;;;;;22.08;10.32;;;5.50;99.90;;;;;;2622405;46;20630;31
2022/10/10 02:46:08;;;;;;;18.55;9.65;;;5.50;99.90;;;;;;2603704;54;19938;31
2022/10/10 02:48:46;;;;;;;17.33;9.88;;;5.50;99.90;;;;;;2603514;54;20868;31
2022/10/10 02:51:21;;;;;;;17.80;9.20;;;5.40;99.90;;;;;;2603659;54;20716;31
2022/10/10 02:53:56;;;;;;;14.43;9.02;;;5.40;99.90;;;;;;2603783;54;20026;31
2022/10/10 02:56:31;;;;;;;14.82;9.60;;;5.40;99.90;;;;;;2702149;39;20573;31
2022/10/10 02:59:06;;;;;;;15.43;9.82;;;5.50;99.90;;;;;;2622257;46;19943;31
2022/10/10 03:01:41;;;;;;;22.00;10.90;;;5.40;99.90;;;;;;2602984;54;20030;31
2022/10/10 03:04:19;;;;;;;23.20;10.50;;;5.40;99.90;;;;;;2603629;54;20042;31
2022/10/10 03:06:54;;;;;;;19.27;10.60;;;5.40;99.90;;;;;;2603519;54;20168;31
2022/10/10 03:09:28;;;;;;;12.23;8.60;;;5.40;99.90;;;;;;2609506;46;20032;31
2022/10/10 03:12:03;;;;;;;17.30;10.85;;;5.50;99.90;;;;;;2603663;54;20085;31
2022/10/10 03:14:38;;;;;;;21.10;9.90;;;5.40;99.90;;;;;;2603743;54;20821;31
2022/10/10 03:17:15;;;;;;;16.50;10.50;;;5.40;99.90;;;;;;2603673;54;20034;31
2022/10/10 03:19:53;;;;;;;16.00;10.82;;;5.40;99.90;;;;;;2622195;46;20151;31
2022/10/10 03:22:29;;;;;;;23.05;11.40;;;5.50;99.90;;;;;;2602894;54;20859;31
2022/10/10 03:25:03;;;;;;;20.20;10.85;;;5.70;99.90;;;;;;2603422;54;20030;31
2022/10/10 03:27:39;;;;;;;17.88;9.52;;;5.30;99.90;;;;;;2603426;54;20056;31
2022/10/10 03:30:15;;;;;;;16.90;9.90;;;5.50;99.90;;;;;;2603498;54;20031;31
2022/10/10 03:32:50;;;;;;;16.10;10.15;;;5.40;99.90;;;;;;2603393;54;20074;31
2022/10/10 03:35:29;;;;;;;14.90;9.35;;;5.30;99.90;;;;;;2603667;54;20056;31
2022/10/10 03:38:04;;;;;;;21.00;11.07;;;5.30;99.90;;;;;;2603666;54;20057;31
2022/10/10 03:40:41;;;;;;;14.82;9.70;;;5.30;99.90;;;;;;2603321;54;20030;31
2022/10/10 03:43:16;;;;;;;20.33;11.77;;;5.30;99.90;;;;;;2602875;54;20920;31
2022/10/10 03:45:51;;;;;;;16.45;11.15;;;5.30;99.90;;;;;;2602736;54;20042;31
2022/10/10 03:48:26;;;;;;;21.77;11.30;;;5.50;99.90;;;;;;2603232;54;20038;31
2022/10/10 03:51:05;;;;;;;18.35;12.00;;;5.50;99.90;;;;;;2603418;54;20023;31
2022/10/10 03:53:41;;;;;;;18.73;12.10;;;5.30;99.90;;;;;;2621761;46;20074;31
2022/10/10 03:56:16;;;;;;;21.65;11.90;;;5.30;99.90;;;;;;2603319;54;20023;31
2022/10/10 03:58:51;;;;;;;25.17;12.27;;;5.20;99.90;;;;;;2622072;46;20882;31
2022/10/10 04:01:26;;;;;;;19.33;11.63;;;5.60;99.90;;;;;;2603618;54;20031;31
2022/10/10 04:04:01;;;;;;;18.00;11.50;;;5.40;99.90;;;;;;2603571;54;20593;31
2022/10/10 04:06:40;;;;;;;19.33;12.77;;;5.20;99.90;;;;;;2603497;54;20570;31
2022/10/10 04:09:15;;;;;;;17.10;11.25;;;5.20;99.90;;;;;;2603537;54;20570;31
2022/10/10 04:11:51;;;;;;;20.20;12.18;;;5.20;99.90;;;;;;2603510;54;20022;31
2022/10/10 04:14:29;;;;;;;17.95;11.10;;;5.20;99.90;;;;;;2603216;54;20030;31
2022/10/10 04:17:07;;;;;;;17.15;11.23;;;5.30;99.90;;;;;;2603195;54;20890;31
2022/10/10 04:19:42;;;;;;;17.50;11.50;;;5.20;99.90;;;;;;2603339;54;20844;31
2022/10/10 04:22:22;;;;;;;19.55;10.85;;;5.30;99.90;;;;;;2603056;54;20836;31
2022/10/10 04:24:58;;;;;;;21.02;11.32;;;5.20;99.90;;;;;;2603226;54;20929;31
2022/10/10 04:27:33;;;;;;;21.73;11.80;;;5.30;99.90;;;;;;2603473;54;20030;31
2022/10/10 04:30:11;;;;;;;21.10;11.65;;;5.20;99.90;;;;;;2603347;54;20026;31
2022/10/10 04:32:47;;;;;;;15.15;10.60;;;5.30;99.90;;;;;;2603094;54;20064;31
2022/10/10 04:35:23;;;;;;;22.25;12.45;;;5.30;99.90;;;;;;2603517;54;20799;31
2022/10/10 04:38:04;;;;;;;22.55;12.45;;;5.30;99.90;;;;;;2603449;54;20038;31
2022/10/10 04:40:42;;;;;;;26.52;12.52;;;5.30;99.90;;;;;;2621773;46;20026;31
2022/10/10 04:43:17;;;;;;;21.15;12.45;;;5.20;99.90;;;;;;2610730;46;20864;31
2022/10/10 04:45:52;;;;;;;19.40;11.20;;;5.30;99.90;;;;;;2603315;54;20037;31
2022/10/10 04:48:27;;;;;;;20.75;11.05;;;5.30;99.90;;;;;;2621395;46;20914;31
2022/10/10 04:51:03;;;;;;;18.47;11.67;;;5.20;99.90;;;;;;2603216;54;20903;31
2022/10/10 04:53:40;;;;;;;;;;;5.20;99.90;;;;;;2603657;54;20026;31
2022/10/10 04:56:14;;;;;;;22.73;12.52;;;5.10;99.90;;;;;;2621951;46;20697;31
2022/10/10 04:58:50;;;;;;;27.95;12.60;;;5.10;99.90;;;;;;2603339;54;20026;31
2022/10/10 05:01:25;;;;;;;19.65;12.00;;;5.20;99.90;;;;;;2603265;54;20062;31
2022/10/10 05:04:00;;;;;;;21.20;12.63;;;5.10;99.90;;;;;;2603310;54;20074;31
2022/10/10 05:06:35;;;;;;;23.52;12.52;;;5.10;99.90;;;;;;2621645;46;20038;31
2022/10/10 05:09:12;;;;;;;27.67;12.63;;;5.10;99.90;;;;;;2603151;54;20864;31
2022/10/10 05:11:48;;;;;;;68.78;25.58;;;5.10;99.90;;;;;;2613199;46;20060;31
2022/10/10 05:14:27;;;;;;;112.18;61.97;;;5.10;99.90;;;;;;2603031;54;20081;31
2022/10/10 05:17:03;;;;;;;68.00;42.70;;;5.50;99.90;;;;;;2621724;46;20033;31
2022/10/10 05:19:38;;;;;;;51.20;39.50;;;5.10;99.90;;;;;;2603393;54;20068;31
2022/10/10 05:22:14;;;;;;;31.67;21.90;;;5.10;99.90;;;;;;2602933;54;20034;31
2022/10/10 05:24:53;;;;;;;25.10;15.38;;;5.10;99.90;;;;;;2603275;54;20885;31
2022/10/10 05:27:28;;;;;;;25.98;13.82;;;5.30;99.90;;;;;;2602888;54;20069;31
2022/10/10 05:30:03;;;;;;;18.60;12.98;;;5.20;99.90;;;;;;2603105;54;20916;31
2022/10/10 05:32:42;;;;;;;23.47;13.93;;;5.30;99.90;;;;;;2602747;54;20046;31
2022/10/10 05:35:19;;;;;;;25.93;13.63;;;5.40;99.90;;;;;;2621565;46;20034;31
2022/10/10 05:37:58;;;;;;;21.63;13.52;;;5.40;99.90;;;;;;2621178;46;20886;31
2022/10/10 05:40:35;;;;;;;21.20;12.43;;;6.00;99.90;;;;;;2603423;54;20030;31
2022/10/10 05:43:13;;;;;;;25.85;12.50;;;6.00;99.90;;;;;;2602336;54;20915;31
2022/10/10 05:45:49;;;;;;;15.18;10.50;;;6.30;99.90;;;;;;2603176;54;20120;31
2022/10/10 05:48:24;;;;;;;21.65;10.55;;;6.60;99.90;;;;;;2603134;54;20034;31
2022/10/10 05:51:00;;;;;;;17.90;10.95;;;7.00;99.90;;;;;;2603039;54;20034;31
2022/10/10 05:53:35;;;;;;;23.40;10.30;;;7.40;99.90;;;;;;2603020;54;20057;31
2022/10/10 05:56:15;;;;;;;16.55;9.77;;;8.00;99.90;;;;;;2602913;54;20050;31
2022/10/10 05:58:55;;;;;;;16.73;10.32;;;8.30;99.90;;;;;;2621299;47;20917;31
2022/10/10 06:01:32;;;;;;;19.65;10.80;;;8.60;99.90;;;;;;2621538;47;20910;31
2022/10/10 06:04:07;;;;;;;21.73;10.93;;;8.90;99.90;;;;;;2602992;54;20027;31
2022/10/10 06:06:42;;;;;;;;;;;9.10;99.90;;;;;;2602307;54;20056;31
2022/10/10 06:09:16;;;;;;;22.17;10.45;;;9.30;99.90;;;;;;2602935;54;20705;31
2022/10/10 06:11:54;;;;;;;14.15;9.30;;;9.50;99.90;;;;;;2602760;54;20026;31
2022/10/10 06:14:32;;;;;;;15.75;9.20;;;10.00;99.90;;;;;;2603124;54;20026;31
2022/10/10 06:17:08;;;;;;;14.30;8.90;;;9.90;99.90;;;;;;2602951;54;20053;31
2022/10/10 06:19:45;;;;;;;18.10;10.15;;;10.30;99.90;;;;;;2719766;39;20546;31
2022/10/10 06:22:23;;;;;;;16.80;10.30;;;10.10;99.90;;;;;;2621501;47;20919;31
2022/10/10 06:24:59;;;;;;;27.75;11.85;;;10.50;99.90;;;;;;2602933;54;20026;31
2022/10/10 06:27:37;;;;;;;16.55;9.90;;;10.50;99.90;;;;;;2602827;54;20905;31
2022/10/10 06:30:13;;;;;;;16.17;10.07;;;10.70;99.90;;;;;;2602807;54;20138;31
2022/10/10 06:32:48;;;;;;;16.63;10.05;;;10.80;99.90;;;;;;2621335;47;20037;31
2022/10/10 06:35:30;;;;;;;14.88;10.32;;;11.00;99.90;;;;;;2603012;54;20030;31
2022/10/10 06:38:07;;;;;;;16.77;10.18;;;11.50;99.90;;;;;;2602778;54;19957;31
2022/10/10 06:40:43;;;;;;;14.70;9.40;;;11.40;99.90;;;;;;2602841;54;20815;31
2022/10/10 06:43:22;;;;;;;20.43;9.80;;;11.70;99.90;;;;;;2602129;54;20093;31
2022/10/10 06:46:00;;;;;;;18.43;7.43;;;11.90;99.90;;;;;;2603521;54;20036;31
2022/10/10 06:48:35;;;;;;;;;;;12.20;99.90;;;;;;2603833;54;20023;31
2022/10/10 06:51:13;;;;;;;21.00;11.55;;;12.30;99.90;;;;;;2603594;54;19943;31
2022/10/10 06:53:49;;;;;;;19.10;11.30;;;12.40;99.90;;;;;;2603481;54;21018;31
2022/10/10 06:56:24;;;;;;;16.45;11.00;;;12.20;99.90;;;;;;2603593;54;20030;31
2022/10/10 06:59:04;;;;;;;19.63;11.35;;;12.20;99.90;;;;;;2603809;54;20026;31
2022/10/10 07:01:39;;;;;;;20.85;11.02;;;12.30;99.90;;;;;;2612196;46;20030;31
2022/10/10 07:04:16;;;;;;;22.00;11.87;;;12.40;99.90;;;;;;2603008;54;20038;31
2022/10/10 07:06:54;;;;;;;19.50;11.88;;;12.40;99.90;;;;;;2603788;54;20094;31
2022/10/10 07:09:30;;;;;;;20.52;13.25;;;12.50;99.90;;;;;;2603544;54;20811;31
2022/10/10 07:12:05;;;;;;;23.30;13.73;;;12.60;99.90;;;;;;2603730;54;20038;31
2022/10/10 07:14:43;;;;;;;;;;;12.60;99.90;;;;;;2603804;54;20805;31
2022/10/10 07:17:24;;;;;;;45.15;30.55;;;12.60;99.90;;;;;;2603516;54;20793;31
2022/10/10 07:19:59;;;;;;;33.35;23.15;;;12.50;99.90;;;;;;2622255;46;20089;31
2022/10/10 07:22:35;;;;;;;20.40;13.20;;;12.90;99.90;;;;;;2603633;54;20808;31
2022/10/10 07:25:12;;;;;;;24.58;13.27;;;12.80;99.90;;;;;;2622227;46;20964;31
2022/10/10 07:27:48;;;;;;;20.05;13.55;;;13.00;99.90;;;;;;2622423;46;20022;31
2022/10/10 07:30:23;;;;;;;20.35;12.75;;;13.10;99.90;;;;;;2603568;54;20027;31
2022/10/10 07:33:01;;;;;;;21.90;13.17;;;13.30;99.90;;;;;;2603459;54;20033;31
2022/10/10 07:35:38;;;;;;;20.75;14.10;;;13.50;99.90;;;;;;2603509;54;20919;31
2022/10/10 07:38:14;;;;;;;20.90;13.07;;;13.60;99.90;;;;;;2603629;54;20026;31
2022/10/10 07:40:49;;;;;;;20.73;11.88;;;13.80;99.90;;;;;;2603592;54;20250;31
2022/10/10 07:43:24;;;;;;;18.23;13.20;;;13.90;99.90;;;;;;2603556;54;20030;31
2022/10/10 07:45:59;;;;;;;22.70;13.35;;;13.90;99.90;;;;;;2603341;54;20970;31
2022/10/10 07:48:57;;;;;;;22.50;13.15;;;13.90;99.90;;;;;;2602162;54;20145;31
2022/10/10 07:51:32;;;;;;;17.52;11.65;;;14.20;99.90;;;;;;2621756;46;20037;31
2022/10/10 07:54:08;;;;;;;19.58;12.57;;;14.60;99.90;;;;;;2621937;46;20096;31
2022/10/10 07:56:45;;;;;;;20.00;12.18;;;14.50;99.90;;;;;;2603160;54;20924;31
2022/10/10 07:59:20;;;;;;;;;;;14.70;99.90;;;;;;2603800;54;20026;31
2022/10/10 08:01:54;;;;;;;17.95;12.10;;;14.80;99.90;;;;;;2603529;54;20045;31
2022/10/10 08:04:34;;;;;;;15.25;10.70;;;15.00;99.90;;;;;;2603127;54;20026;31
2022/10/10 08:07:11;;;;;;;16.65;11.15;;;15.10;99.90;;;;;;2603448;54;20566;31
2022/10/10 08:09:44;;;;;;;14.70;11.13;;;15.20;99.90;;;;;;2622026;46;20953;31
2022/10/10 08:12:22;;;;;;;16.47;11.07;;;15.30;99.90;;;;;;2720264;39;20578;31
2022/10/10 08:15:03;;;;;;;19.98;11.63;;;15.60;99.90;;;;;;2603349;54;20038;31
2022/10/10 08:17:38;;;;;;;21.02;12.43;;;15.40;99.90;;;;;;2621761;46;20077;31
2022/10/10 08:20:18;;;;;;;20.05;11.95;;;15.70;99.90;;;;;;2602690;54;20019;31
2022/10/10 08:22:54;;;;;;;16.25;10.88;;;15.30;99.90;;;;;;2603358;54;20022;31
2022/10/10 08:25:29;;;;;;;15.75;11.15;;;15.30;99.90;;;;;;2603307;54;20030;31
2022/10/10 08:28:04;;;;;;;17.30;10.40;;;15.20;99.90;;;;;;2603374;54;20050;31
2022/10/10 08:30:43;;;;;;;14.25;9.88;;;15.10;99.90;;;;;;2603188;54;20800;31
2022/10/10 08:33:19;;;;;;;14.05;10.20;;;15.20;99.90;;;;;;2603237;54;20908;31
2022/10/10 08:35:56;;;;;;;14.30;9.10;;;15.30;99.90;;;;;;2701137;39;20508;31
2022/10/10 08:38:32;;;;;;;17.25;10.10;;;15.40;99.90;;;;;;2603418;54;20033;31
2022/10/10 08:41:11;;;;;;;15.00;9.57;;;15.60;99.90;;;;;;2603679;54;20869;31
2022/10/10 08:43:49;;;;;;;13.57;9.52;;;15.90;99.90;;;;;;2720268;39;20462;31
2022/10/10 08:46:36;;;;;;;16.40;9.45;;;15.70;99.90;;;;;;2603105;54;20089;31
2022/10/10 08:49:18;;;;;;;13.40;10.00;;;15.80;99.90;;;;;;2603260;54;20955;31
2022/10/10 08:52:01;;;;;;;17.45;10.25;;;15.80;99.90;;;;;;2603318;54;20027;31
2022/10/10 08:54:38;;;;;;;15.45;11.30;;;16.00;99.90;;;;;;2603385;54;20910;31
2022/10/10 08:57:16;;;;;;;14.45;9.25;;;16.30;99.90;;;;;;2602533;54;20864;31
2022/10/10 08:59:51;;;;;;;14.15;9.75;;;16.30;99.90;;;;;;2701629;39;20474;31
2022/10/10 09:02:28;;;;;;;;;;;16.40;99.90;;;;;;2603595;54;20030;31
2022/10/10 09:05:29;;;;;;;13.93;9.18;;;16.40;99.90;;;;;;2603291;54;19934;31
2022/10/10 09:08:21;;;;;;;14.05;8.88;;;16.40;99.90;;;;;;2602013;54;20731;31
2022/10/10 09:11:05;;;;;;;15.00;9.27;;;16.50;99.90;;;;;;2603287;54;19982;31
2022/10/10 09:13:42;;;;;;;12.18;7.70;;;16.70;99.90;;;;;;2701679;39;20504;31
2022/10/10 09:16:22;;;;;;;13.10;8.80;;;16.90;99.90;;;;;;2621361;46;20037;31
2022/10/10 09:19:01;;;;;;;12.18;7.72;;;17.00;99.90;;;;;;2603347;54;20837;31
2022/10/10 09:21:36;;;;;;;16.05;8.23;;;17.10;99.90;;;;;;2603000;54;20862;31
2022/10/10 09:24:12;;;;;;;24.73;10.07;;;17.10;99.90;;;;;;2603077;54;20027;31
2022/10/10 09:26:51;;;;;;;59.25;16.95;;;17.20;99.90;;;;;;2621695;46;20932;31
2022/10/10 09:29:29;;;;;;;12.97;7.70;;;17.10;99.90;;;;;;2603368;54;20027;31
2022/10/10 09:32:10;;;;;;;12.83;7.20;;;17.20;99.90;;;;;;2603206;54;20819;31
2022/10/10 09:34:50;;;;;;;10.80;7.87;;;17.40;99.90;;;;;;2603290;54;20026;31
2022/10/10 09:37:27;;;;;;;12.95;7.20;;;17.50;99.90;;;;;;2603146;54;20889;31
2022/10/10 09:40:24;;;;;;;15.43;8.10;;;17.70;99.90;;;;;;2603005;54;20034;31
2022/10/10 09:43:01;;;;;;;15.20;6.85;;;17.80;99.90;;;;;;2700756;39;20493;31
2022/10/10 09:45:38;;;;;;;12.20;7.60;;;17.90;99.90;;;;;;2603042;54;20109;31
2022/10/10 09:48:13;;;;;;;12.60;7.18;;;17.90;99.90;;;;;;2621269;46;20843;31
2022/10/10 09:50:49;;;;;;;10.43;6.95;;;17.90;99.90;;;;;;2603127;54;20113;31
2022/10/10 09:53:24;;;;;;;11.80;7.00;;;17.90;99.90;;;;;;2617534;46;20093;31
2022/10/10 09:56:02;;;;;;;11.93;6.63;;;17.90;99.90;;;;;;2602890;54;20026;31
2022/10/10 09:58:47;;;;;;;9.82;6.63;;;17.90;99.90;;;;;;2603000;54;20872;31
2022/10/10 10:01:33;;;;;;;11.03;6.47;;;17.90;99.90;;;;;;2602995;54;20027;31
2022/10/10 10:04:07;;;;;;;;;;;18.00;99.90;;;;;;2603267;54;20855;31
2022/10/10 10:07:07;;;;;;;11.10;6.60;;;17.80;99.90;;;;;;2621588;47;19935;31
2022/10/10 10:09:42;;;;;;;12.63;6.53;;;17.70;99.90;;;;;;2603101;54;20052;31
2022/10/10 10:12:21;;;;;;;10.50;6.43;;;17.80;99.90;;;;;;2603194;54;20057;31
2022/10/10 10:15:00;;;;;;;9.90;5.90;;;17.70;99.90;;;;;;2701459;39;20389;31
2022/10/10 10:17:36;;;;;;;44.22;28.90;;;17.70;99.90;;;;;;2621131;47;21449;31
2022/10/10 10:20:33;;;;;;;159.55;91.68;;;17.50;99.90;;;;;;2622125;47;20923;31
2022/10/10 10:23:08;;;;;;;;;;;17.20;99.90;;;;;;2622510;46;20054;31
2022/10/10 10:25:43;;;;;;;137.45;85.05;;;17.20;99.90;;;;;;2603733;54;19934;31
2022/10/10 10:28:20;;;;;;;146.95;90.15;;;17.10;99.90;;;;;;2603901;54;20030;31
2022/10/10 10:30:59;;;;;;;51.88;32.25;;;17.10;99.90;;;;;;2603022;54;21539;31
2022/10/10 10:33:39;;;;;;;482.80;349.73;;;17.10;99.90;;;;;;2702397;39;20558;31
2022/10/10 10:36:21;;;;;;;338.23;238.23;;;17.20;99.90;;;;;;2702248;39;20467;31
2022/10/10 10:39:01;;;;;;;339.77;233.35;;;17.20;99.90;;;;;;2702276;39;20466;31
2022/10/10 10:41:39;;;;;;;105.85;65.78;;;17.30;99.90;;;;;;2603669;54;20037;31
2022/10/10 10:44:24;;;;;;;104.57;71.00;;;17.20;99.90;;;;;;2603655;54;20027;31
2022/10/10 10:47:15;;;;;;;32.97;25.30;;;17.30;99.90;;;;;;2720697;39;20552;31
2022/10/10 10:50:04;;;;;;;32.53;20.60;;;17.20;99.90;;;;;;2622384;46;20842;31
2022/10/10 10:52:40;;;;;;;28.05;20.20;;;17.20;99.90;;;;;;2603401;54;20156;31
2022/10/10 10:55:35;;;;;;;545.78;317.33;;;17.20;99.90;;;;;;2702158;39;20466;31
2022/10/10 10:58:25;;;;;;;262.30;133.65;;;17.10;99.90;;;;;;2603554;54;20819;31
2022/10/10 11:01:24;;;;;;;17.98;12.10;;;17.00;99.90;;;;;;2603606;54;20093;31
2022/10/10 11:04:29;;;;;;;16.08;9.32;;;17.00;99.90;;;;;;2603746;54;20943;31
2022/10/10 11:07:24;;;;;;;42.33;21.58;;;17.00;99.90;;;;;;2603610;54;20023;31
2022/10/10 11:10:01;;;;;;;13.07;8.30;;;17.00;99.90;;;;;;2603970;54;20026;31
2022/10/10 11:12:46;;;;;;;9.90;7.40;;;16.90;99.90;;;;;;2603476;54;20888;31
2022/10/10 11:15:23;;;;;;;13.18;6.93;;;16.90;99.90;;;;;;2603452;54;20896;31
2022/10/10 11:18:02;;;;;;;17.30;11.15;;;16.80;99.90;;;;;;2603577;54;20030;31
2022/10/10 11:20:43;;;;;;;22.73;14.05;;;16.80;99.90;;;;;;2603458;54;20093;31
2022/10/10 11:23:21;;;;;;;11.73;9.18;;;16.80;99.90;;;;;;2603524;54;20031;31
2022/10/10 11:25:56;;;;;;;16.20;10.40;;;16.90;99.90;;;;;;2603605;54;20027;31
2022/10/10 11:28:32;;;;;;;14.95;8.80;;;16.90;99.90;;;;;;2702072;39;21518;31
2022/10/10 11:31:13;;;;;;;12.82;6.95;;;17.00;99.90;;;;;;2603308;54;20049;31
2022/10/10 11:33:47;;;;;;;12.02;5.68;;;17.10;99.90;;;;;;2603684;54;20900;31
2022/10/10 11:36:25;;;;;;;12.05;6.70;;;17.10;99.90;;;;;;2603364;54;20033;31
2022/10/10 11:39:01;;;;;;;9.95;5.78;;;17.20;99.90;;;;;;2621702;46;20939;31
2022/10/10 11:41:38;;;;;;;13.25;6.00;;;17.30;99.90;;;;;;2603547;54;20797;31
2022/10/10 11:44:15;;;;;;;14.95;5.25;;;17.40;99.90;;;;;;2603654;54;20053;31
2022/10/10 11:46:52;;;;;;;8.75;5.05;;;17.50;99.90;;;;;;2603335;54;20113;31
2022/10/10 11:49:29;;;;;;;10.00;5.40;;;17.50;99.90;;;;;;2603469;54;20027;31
2022/10/10 11:52:17;;;;;;;8.05;4.90;;;17.50;99.90;;;;;;2603434;54;20054;31
2022/10/10 11:55:11;;;;;;;13.47;4.73;;;17.50;99.90;;;;;;2621981;46;20061;31
2022/10/10 11:57:49;;;;;;;12.25;4.90;;;17.60;99.90;;;;;;2603500;54;20030;31
2022/10/10 12:00:24;;;;;;;11.38;5.75;;;17.60;99.90;;;;;;2603599;54;20875;31
2022/10/10 12:03:00;;;;;;;7.33;4.80;;;17.60;99.90;;;;;;2622105;46;20889;31
2022/10/10 12:05:37;;;;;;;;;;;17.70;99.90;;;;;;2603848;54;20319;31
2022/10/10 12:08:19;;;;;;;8.60;4.85;;;17.80;99.90;;;;;;2603776;54;19941;31
2022/10/10 12:10:54;;;;;;;10.60;4.95;;;17.80;99.90;;;;;;2603396;54;20038;31
2022/10/10 12:13:33;;;;;;;7.53;5.33;;;17.90;99.90;;;;;;2603450;54;20641;31
2022/10/10 12:16:09;;;;;;;8.40;4.60;;;17.90;99.90;;;;;;2603438;54;20050;31
2022/10/10 12:18:46;;;;;;;9.45;4.60;;;17.90;99.90;;;;;;2603501;54;20126;31
2022/10/10 12:21:22;;;;;;;8.57;4.88;;;17.90;99.90;;;;;;2603576;54;20058;31
2022/10/10 12:24:07;;;;;;;13.35;4.80;;;18.10;99.90;;;;;;2603384;54;20089;31
2022/10/10 12:27:11;;;;;;;10.63;5.03;;;18.00;99.90;;;;;;2603314;54;20907;31
2022/10/10 12:29:50;;;;;;;9.20;4.90;;;18.10;99.90;;;;;;2603603;54;20045;31
2022/10/10 12:32:29;;;;;;;9.97;5.20;;;18.10;99.90;;;;;;2603237;54;20809;31
2022/10/10 12:35:04;;;;;;;5.75;4.28;;;18.10;99.90;;;;;;2603310;54;20050;31
2022/10/10 12:37:39;;;;;;;7.50;4.60;;;18.20;99.90;;;;;;2621901;46;20918;31
2022/10/10 12:40:35;;;;;;;10.45;4.93;;;18.20;99.90;;;;;;2603221;54;20855;31
2022/10/10 12:43:26;;;;;;;7.50;4.88;;;18.20;99.90;;;;;;2603379;54;20835;31
2022/10/10 12:46:10;;;;;;;11.55;4.45;;;18.30;99.90;;;;;;2603366;54;20030;31
2022/10/10 12:48:45;;;;;;;10.50;4.85;;;18.30;99.90;;;;;;2603390;54;20048;31
2022/10/10 12:51:21;;;;;;;14.75;5.38;;;18.30;99.90;;;;;;2603292;54;20954;31
2022/10/10 12:53:56;;;;;;;9.13;4.45;;;18.50;99.90;;;;;;2603230;54;20022;31
2022/10/10 12:56:38;;;;;;;;;;;18.50;99.90;;;;;;2603599;54;20856;31
2022/10/10 12:59:20;;;;;;;10.55;4.32;;;18.50;99.90;;;;;;2606257;46;20532;31
2022/10/10 13:01:57;;;;;;;10.20;4.10;;;18.60;99.90;;;;;;2603053;54;19993;31
2022/10/10 13:04:32;;;;;;;10.35;6.47;;;18.60;99.90;;;;;;2603115;54;20888;31
2022/10/10 13:07:08;;;;;;;7.97;4.57;;;18.80;99.90;;;;;;2603174;54;20993;31
2022/10/10 13:09:45;;;;;;;5.93;4.70;;;18.80;99.90;;;;;;2603259;54;20031;31
2022/10/10 13:12:29;;;;;;;;;;;18.60;99.90;;;;;;2603605;54;20914;31
2022/10/10 13:15:04;;;;;;;10.25;4.95;;;18.80;99.90;;;;;;2603448;54;20052;31
2022/10/10 13:17:40;;;;;;;14.45;6.00;;;18.90;99.90;;;;;;2621351;46;20938;31
2022/10/10 13:20:34;;;;;;;19.37;5.67;;;18.90;99.90;;;;;;2603500;54;20817;31
2022/10/10 13:23:13;;;;;;;10.50;5.45;;;18.90;99.90;;;;;;2603199;54;20243;31
2022/10/10 13:25:49;;;;;;;8.68;4.75;;;18.90;99.90;;;;;;2603197;54;20882;31
2022/10/10 13:28:27;;;;;;;;;;;18.90;99.90;;;;;;2603656;54;20089;31
2022/10/10 13:31:02;;;;;;;8.98;5.43;;;18.80;99.90;;;;;;2603277;54;20753;31
2022/10/10 13:33:38;;;;;;;10.30;4.60;;;18.70;99.90;;;;;;2621767;46;20933;31
2022/10/10 13:36:21;;;;;;;12.25;5.68;;;18.60;99.90;;;;;;2603282;54;20141;31
2022/10/10 13:38:56;;;;;;;11.00;4.90;;;18.60;99.90;;;;;;2603138;54;20991;31
2022/10/10 13:41:31;;;;;;;6.70;4.45;;;18.50;99.90;;;;;;2603155;54;20089;31
2022/10/10 13:44:12;;;;;;;13.25;5.50;;;18.60;99.90;;;;;;2602948;54;20961;31
2022/10/10 13:46:47;;;;;;;6.75;4.93;;;18.50;99.90;;;;;;2621494;46;20862;31
2022/10/10 13:49:24;;;;;;;10.77;5.55;;;18.50;99.90;;;;;;2621410;46;20883;31